WetterOnline ( https://www.wetteronline.de )

Wetter aktuell Gera

Aktuelles Wetter: Gera/Leumnitz (311m)

6-stündlich | Neueste Meldungen
Ortszeit Temperatur Wetter
Sa, 11.07. 8:00 12.2° C bewölkt
Sa, 11.07. 2:00 13.5° C bewölkt
Fr, 10.07. 20:00 17.5° C wolkig
Fr, 10.07. 14:00 25.9° C bewölkt
Fr, 10.07. 8:00 19.1° C wolkig
Fr, 10.07. 2:00 16.9° C bedeckt
Do, 09.07. 20:00 24.2° C leicht bewölkt
Do, 09.07. 14:00 21.0° C wolkig
Ortszeit Temperatur Wetter
Sa, 11.07. 13:30 17.2° C wolkig
Sa, 11.07. 13:20 17.2° C wolkig
Sa, 11.07. 13:10 17.3° C wolkig
Sa, 11.07. 13:00 17.3° C wolkig
Sa, 11.07. 12:50 17.3° C bewölkt
Sa, 11.07. 12:40 16.5° C bedeckt
Sa, 11.07. 12:30 16.1° C bewölkt
Sa, 11.07. 12:00 16.1° C bewölkt
Ortszeit Relative Feuchte Sichtweite
Sa, 11.07. 8:00 81% 50 km
Sa, 11.07. 2:00 78% 60 km
Fr, 10.07. 20:00 70% >70 km
Fr, 10.07. 14:00 40% 65 km
Fr, 10.07. 8:00 74% 65 km
Fr, 10.07. 2:00 89% 35 km
Do, 09.07. 20:00 51% >70 km
Do, 09.07. 14:00 68% 60 km
Ortszeit Relative Feuchte Sichtweite
Sa, 11.07. 13:30 44% >70 km
Sa, 11.07. 13:20 44% -
Sa, 11.07. 13:10 46% -
Sa, 11.07. 13:00 46% 65 km
Sa, 11.07. 12:50 46% -
Sa, 11.07. 12:40 48% -
Sa, 11.07. 12:30 52% >70 km
Sa, 11.07. 12:00 54% >70 km
Ortszeit Niederschlagsmenge Niederschlagsart
Sa, 11.07. 8:00 0.0 l/m2 in 12 Std. -
Sa, 11.07. 2:00 0.0 l/m2 in 6 Std. -
Fr, 10.07. 20:00 0.0 l/m2 in 12 Std. -
Fr, 10.07. 14:00 0.0 l/m2 in 6 Std. -
Fr, 10.07. 8:00 0.1 l/m2 in 12 Std. Regen
Fr, 10.07. 2:00 0.1 l/m2 in 6 Std. Regen
Do, 09.07. 20:00 0.2 l/m2 in 12 Std. -
Do, 09.07. 14:00 0.2 l/m2 in 6 Std. Regen
Ortszeit Niederschlagsmenge Niederschlagsart
Sa, 11.07. 13:30 0.0 l/m2 in 1 Std. -
Sa, 11.07. 13:20 keine Meldung -
Sa, 11.07. 13:10 keine Meldung -
Sa, 11.07. 13:00 0.0 l/m2 in 1 Std. -
Sa, 11.07. 12:50 keine Meldung -
Sa, 11.07. 12:40 keine Meldung -
Sa, 11.07. 12:30 0.0 l/m2 in 1 Std. -
Sa, 11.07. 12:00 0.0 l/m2 in 1 Std. -
Ortszeit Stärke Spitze Richtung
km/h Bft. km/h Grad Sektor
Sa, 11.07. 8:00 9 2 22 10° N
Sa, 11.07. 2:00 7 2 36 350° N
Fr, 10.07. 20:00 24 4 63 300° NW
Fr, 10.07. 14:00 28 4 52 260° W
Fr, 10.07. 8:00 17 3 26 190° S
Fr, 10.07. 2:00 11 2 25 160° S
Do, 09.07. 20:00 17 3 44 260° W
Do, 09.07. 14:00 22 4 36 230° SW
Ortszeit Stärke Spitze Richtung
km/h Bft. km/h Grad Sektor
Sa, 11.07. 13:30 7 2 18 10° N
Sa, 11.07. 13:20 7 2 - 10° N
Sa, 11.07. 13:10 7 2 - 10° N
Sa, 11.07. 13:00 7 2 18 260° W
Sa, 11.07. 12:50 7 2 - 260° W
Sa, 11.07. 12:40 9 2 - 280° W
Sa, 11.07. 12:30 9 2 19 270° W
Sa, 11.07. 12:00 7 2 15 330° NW
Ortszeit Untergrenze Bedeckung Gattung
total tief tief mittel hoch
Sa, 11.07. 8:00 360 m 7/8 7/8 - - -
Sa, 11.07. 2:00 720 m 8/8 7/8 - - -
Fr, 10.07. 20:00 1350 m 8/8 3/8 - - -
Fr, 10.07. 14:00 2100 m 8/8 7/8 - - -
Fr, 10.07. 8:00 2400 m 8/8 1/8 - - -
Fr, 10.07. 2:00 3000 m 8/8 8/8 - - -
Do, 09.07. 20:00 8100 m 6/8 0/8 - - -
Do, 09.07. 14:00 720 m 8/8 2/8 - - -
Ortszeit Bedeckungsgrad in Achtel und Wolkenuntergrenze
Sa, 11.07. 13:30 1(1350m) 6(1800m)
Sa, 11.07. 13:20 1(1350m) 6(1800m)
Sa, 11.07. 13:10 2(1380m) 5(1800m)
Sa, 11.07. 13:00 7(1800m) 5(1800m)
Sa, 11.07. 12:50 7(1800m)
Sa, 11.07. 12:40 2(1260m) 8(1800m)
Sa, 11.07. 12:30 4(1260m) 7(1500m)
Sa, 11.07. 12:00 2(1140m) 5(1410m) 7(1500m)
Ortszeit Luftdruck NN (hPa) Tendenz (hPa in 3 Std.)
Sa, 11.07. 8:00 1022 + 1,6
Sa, 11.07. 2:00 1020 + 1,9
Fr, 10.07. 20:00 1014 + 3,2
Fr, 10.07. 14:00 1008 + 1,1
Fr, 10.07. 8:00 1009 - 1,7
Fr, 10.07. 2:00 1013 - 0,1
Do, 09.07. 20:00 1011 - 0,8
Do, 09.07. 14:00 1014 - 0,7
Ortszeit Luftdruck NN (hPa) Tendenz (hPa in 3 Std.)
Sa, 11.07. 13:30 1023 + 0,7
Sa, 11.07. 13:20 1023 keine Meldung
Sa, 11.07. 13:10 1023 keine Meldung
Sa, 11.07. 13:00 1023 + 0,7
Sa, 11.07. 12:50 1023 keine Meldung
Sa, 11.07. 12:40 1023 keine Meldung
Sa, 11.07. 12:30 1023 + 0,9
Sa, 11.07. 12:00 1023 + 1,0
Ortszeit Schneehöhe (cm)
Sa, 11.07. 8:00 -
Sa, 11.07. 2:00 -
Fr, 10.07. 20:00 -
Fr, 10.07. 14:00 -
Fr, 10.07. 8:00 -
Fr, 10.07. 2:00 -
Do, 09.07. 20:00 -
Do, 09.07. 14:00 -
Ortszeit Schneehöhe (cm)
Sa, 11.07. 13:30 -
Sa, 11.07. 13:20 -
Sa, 11.07. 13:10 -
Sa, 11.07. 13:00 -
Sa, 11.07. 12:50 -
Sa, 11.07. 12:40 -
Sa, 11.07. 12:30 -
Sa, 11.07. 12:00 -
Link zu dieser Seite / Seite empfehlen

Das Wetter in ...